sensor_id;sensor_type;location;lat;lon;timestamp;P1;durP1;ratioP1;P2;durP2;ratioP2
20044;SDS011;10183;47.808;9.476;2023-08-06T00:00:49;6.70;;;6.40;;
20044;SDS011;10183;47.808;9.476;2023-08-06T00:03:15;6.77;;;6.47;;
20044;SDS011;10183;47.808;9.476;2023-08-06T00:05:41;7.77;;;7.37;;
20044;SDS011;10183;47.808;9.476;2023-08-06T00:08:08;6.67;;;6.37;;
20044;SDS011;10183;47.808;9.476;2023-08-06T00:10:34;6.90;;;6.60;;
20044;SDS011;10183;47.808;9.476;2023-08-06T00:13:01;7.03;;;6.73;;
20044;SDS011;10183;47.808;9.476;2023-08-06T00:15:27;8.70;;;8.30;;
20044;SDS011;10183;47.808;9.476;2023-08-06T00:17:53;8.17;;;7.77;;
20044;SDS011;10183;47.808;9.476;2023-08-06T00:20:19;8.10;;;7.70;;
20044;SDS011;10183;47.808;9.476;2023-08-06T00:22:46;8.67;;;8.27;;
20044;SDS011;10183;47.808;9.476;2023-08-06T00:25:12;8.50;;;8.10;;
20044;SDS011;10183;47.808;9.476;2023-08-06T00:27:38;8.10;;;7.70;;
20044;SDS011;10183;47.808;9.476;2023-08-06T00:30:05;8.30;;;7.90;;
20044;SDS011;10183;47.808;9.476;2023-08-06T00:32:31;8.13;;;7.80;;
20044;SDS011;10183;47.808;9.476;2023-08-06T00:34:57;7.73;;;7.43;;
20044;SDS011;10183;47.808;9.476;2023-08-06T00:37:23;6.83;;;6.53;;
20044;SDS011;10183;47.808;9.476;2023-08-06T00:39:50;7.10;;;6.80;;
20044;SDS011;10183;47.808;9.476;2023-08-06T00:42:16;6.70;;;6.40;;
20044;SDS011;10183;47.808;9.476;2023-08-06T00:44:46;7.70;;;7.40;;
20044;SDS011;10183;47.808;9.476;2023-08-06T00:47:12;7.43;;;7.13;;
20044;SDS011;10183;47.808;9.476;2023-08-06T00:49:39;7.17;;;6.87;;
20044;SDS011;10183;47.808;9.476;2023-08-06T00:52:06;7.40;;;7.10;;
20044;SDS011;10183;47.808;9.476;2023-08-06T00:54:33;7.40;;;7.10;;
20044;SDS011;10183;47.808;9.476;2023-08-06T00:57:01;8.17;;;7.77;;
20044;SDS011;10183;47.808;9.476;2023-08-06T00:59:28;7.10;;;6.80;;
20044;SDS011;10183;47.808;9.476;2023-08-06T01:01:56;8.27;;;7.87;;
20044;SDS011;10183;47.808;9.476;2023-08-06T01:04:22;8.47;;;8.07;;
20044;SDS011;10183;47.808;9.476;2023-08-06T01:06:52;8.50;;;8.10;;
20044;SDS011;10183;47.808;9.476;2023-08-06T01:09:31;7.10;;;6.80;;
20044;SDS011;10183;47.808;9.476;2023-08-06T01:12:20;7.00;;;6.70;;
20044;SDS011;10183;47.808;9.476;2023-08-06T01:15:00;7.40;;;7.10;;
20044;SDS011;10183;47.808;9.476;2023-08-06T01:17:31;7.50;;;7.20;;
20044;SDS011;10183;47.808;9.476;2023-08-06T01:19:57;7.40;;;7.10;;
20044;SDS011;10183;47.808;9.476;2023-08-06T01:22:24;8.00;;;7.60;;
20044;SDS011;10183;47.808;9.476;2023-08-06T01:24:50;7.83;;;7.43;;
20044;SDS011;10183;47.808;9.476;2023-08-06T01:29:52;7.10;;;6.80;;
20044;SDS011;10183;47.808;9.476;2023-08-06T01:32:35;7.00;;;6.70;;
20044;SDS011;10183;47.808;9.476;2023-08-06T01:35:08;6.60;;;6.30;;
20044;SDS011;10183;47.808;9.476;2023-08-06T01:37:37;6.50;;;6.20;;
20044;SDS011;10183;47.808;9.476;2023-08-06T01:40:10;6.90;;;6.60;;
20044;SDS011;10183;47.808;9.476;2023-08-06T01:42:40;6.30;;;6.00;;
20044;SDS011;10183;47.808;9.476;2023-08-06T01:45:06;6.30;;;6.00;;
20044;SDS011;10183;47.808;9.476;2023-08-06T01:47:33;6.80;;;6.50;;
20044;SDS011;10183;47.808;9.476;2023-08-06T01:50:00;6.60;;;6.30;;
20044;SDS011;10183;47.808;9.476;2023-08-06T01:52:27;6.50;;;6.20;;
20044;SDS011;10183;47.808;9.476;2023-08-06T01:54:54;6.37;;;6.07;;
20044;SDS011;10183;47.808;9.476;2023-08-06T01:57:20;6.40;;;6.10;;
20044;SDS011;10183;47.808;9.476;2023-08-06T01:59:47;6.60;;;6.30;;
20044;SDS011;10183;47.808;9.476;2023-08-06T02:02:13;6.80;;;6.50;;
20044;SDS011;10183;47.808;9.476;2023-08-06T02:04:39;6.80;;;6.50;;
20044;SDS011;10183;47.808;9.476;2023-08-06T02:07:05;7.00;;;6.70;;
20044;SDS011;10183;47.808;9.476;2023-08-06T02:09:31;6.80;;;6.50;;
20044;SDS011;10183;47.808;9.476;2023-08-06T02:11:58;6.80;;;6.50;;
20044;SDS011;10183;47.808;9.476;2023-08-06T02:14:24;6.80;;;6.50;;
20044;SDS011;10183;47.808;9.476;2023-08-06T02:16:50;7.20;;;6.90;;
20044;SDS011;10183;47.808;9.476;2023-08-06T02:19:16;7.03;;;6.73;;
20044;SDS011;10183;47.808;9.476;2023-08-06T02:21:43;6.90;;;6.60;;
20044;SDS011;10183;47.808;9.476;2023-08-06T02:24:09;6.40;;;6.10;;
20044;SDS011;10183;47.808;9.476;2023-08-06T02:26:35;6.27;;;5.97;;
20044;SDS011;10183;47.808;9.476;2023-08-06T02:29:01;6.50;;;6.20;;
20044;SDS011;10183;47.808;9.476;2023-08-06T02:31:27;6.30;;;6.00;;
20044;SDS011;10183;47.808;9.476;2023-08-06T02:33:53;6.40;;;6.10;;
20044;SDS011;10183;47.808;9.476;2023-08-06T02:36:19;6.17;;;5.90;;
20044;SDS011;10183;47.808;9.476;2023-08-06T02:38:46;5.80;;;5.60;;
20044;SDS011;10183;47.808;9.476;2023-08-06T02:41:12;5.97;;;5.77;;
20044;SDS011;10183;47.808;9.476;2023-08-06T02:43:38;6.10;;;5.90;;
20044;SDS011;10183;47.808;9.476;2023-08-06T02:46:04;6.00;;;5.80;;
20044;SDS011;10183;47.808;9.476;2023-08-06T02:48:31;6.50;;;6.20;;
20044;SDS011;10183;47.808;9.476;2023-08-06T02:50:57;6.50;;;6.20;;
20044;SDS011;10183;47.808;9.476;2023-08-06T02:53:26;6.30;;;6.00;;
20044;SDS011;10183;47.808;9.476;2023-08-06T02:55:53;6.33;;;6.03;;
20044;SDS011;10183;47.808;9.476;2023-08-06T02:58:20;6.50;;;6.20;;
20044;SDS011;10183;47.808;9.476;2023-08-06T03:01:02;6.30;;;6.00;;
20044;SDS011;10183;47.808;9.476;2023-08-06T03:03:31;6.77;;;6.47;;
20044;SDS011;10183;47.808;9.476;2023-08-06T03:05:57;6.90;;;6.60;;
20044;SDS011;10183;47.808;9.476;2023-08-06T03:08:24;6.40;;;6.10;;
20044;SDS011;10183;47.808;9.476;2023-08-06T03:10:50;6.80;;;6.50;;
20044;SDS011;10183;47.808;9.476;2023-08-06T03:13:17;6.30;;;6.00;;
20044;SDS011;10183;47.808;9.476;2023-08-06T03:15:51;6.30;;;6.00;;
20044;SDS011;10183;47.808;9.476;2023-08-06T03:18:18;6.80;;;6.50;;
20044;SDS011;10183;47.808;9.476;2023-08-06T03:20:44;6.90;;;6.60;;
20044;SDS011;10183;47.808;9.476;2023-08-06T03:23:11;9.27;;;8.77;;
20044;SDS011;10183;47.808;9.476;2023-08-06T03:25:37;8.30;;;7.90;;
20044;SDS011;10183;47.808;9.476;2023-08-06T03:28:03;8.60;;;8.20;;
20044;SDS011;10183;47.808;9.476;2023-08-06T03:30:29;8.20;;;7.80;;
20044;SDS011;10183;47.808;9.476;2023-08-06T03:32:55;7.90;;;7.50;;
20044;SDS011;10183;47.808;9.476;2023-08-06T03:35:21;7.93;;;7.53;;
20044;SDS011;10183;47.808;9.476;2023-08-06T03:37:47;7.97;;;7.57;;
20044;SDS011;10183;47.808;9.476;2023-08-06T03:40:15;7.50;;;7.20;;
20044;SDS011;10183;47.808;9.476;2023-08-06T03:42:41;7.00;;;6.70;;
20044;SDS011;10183;47.808;9.476;2023-08-06T03:45:07;7.60;;;7.30;;
20044;SDS011;10183;47.808;9.476;2023-08-06T03:47:34;7.40;;;7.10;;
20044;SDS011;10183;47.808;9.476;2023-08-06T03:50:00;7.20;;;6.90;;
20044;SDS011;10183;47.808;9.476;2023-08-06T03:52:27;7.00;;;6.70;;
20044;SDS011;10183;47.808;9.476;2023-08-06T03:54:53;7.20;;;6.90;;
20044;SDS011;10183;47.808;9.476;2023-08-06T03:57:19;8.10;;;7.70;;
20044;SDS011;10183;47.808;9.476;2023-08-06T03:59:45;7.57;;;7.27;;
20044;SDS011;10183;47.808;9.476;2023-08-06T04:02:11;8.40;;;7.90;;
20044;SDS011;10183;47.808;9.476;2023-08-06T04:04:37;7.93;;;7.53;;
20044;SDS011;10183;47.808;9.476;2023-08-06T04:07:03;8.23;;;7.83;;
20044;SDS011;10183;47.808;9.476;2023-08-06T04:09:30;16.53;;;15.63;;
20044;SDS011;10183;47.808;9.476;2023-08-06T04:11:56;17.10;;;16.00;;
20044;SDS011;10183;47.808;9.476;2023-08-06T04:14:25;15.63;;;14.60;;
20044;SDS011;10183;47.808;9.476;2023-08-06T04:16:52;14.47;;;13.47;;
20044;SDS011;10183;47.808;9.476;2023-08-06T04:19:18;14.93;;;13.83;;
20044;SDS011;10183;47.808;9.476;2023-08-06T04:21:44;15.80;;;14.60;;
20044;SDS011;10183;47.808;9.476;2023-08-06T04:24:10;14.40;;;13.30;;
20044;SDS011;10183;47.808;9.476;2023-08-06T04:26:36;16.30;;;14.77;;
20044;SDS011;10183;47.808;9.476;2023-08-06T04:29:02;22.57;;;20.77;;
20044;SDS011;10183;47.808;9.476;2023-08-06T04:31:29;15.43;;;14.33;;
20044;SDS011;10183;47.808;9.476;2023-08-06T04:33:55;15.80;;;14.70;;
20044;SDS011;10183;47.808;9.476;2023-08-06T04:36:21;19.83;;;18.23;;
20044;SDS011;10183;47.808;9.476;2023-08-06T04:38:47;17.03;;;15.93;;
20044;SDS011;10183;47.808;9.476;2023-08-06T04:41:14;17.00;;;15.90;;
20044;SDS011;10183;47.808;9.476;2023-08-06T04:43:40;16.83;;;15.63;;
20044;SDS011;10183;47.808;9.476;2023-08-06T04:46:06;16.30;;;15.20;;
20044;SDS011;10183;47.808;9.476;2023-08-06T04:48:32;17.87;;;16.47;;
20044;SDS011;10183;47.808;9.476;2023-08-06T04:50:58;16.57;;;15.37;;
20044;SDS011;10183;47.808;9.476;2023-08-06T04:53:25;15.87;;;14.87;;
20044;SDS011;10183;47.808;9.476;2023-08-06T04:55:51;15.03;;;14.00;;
20044;SDS011;10183;47.808;9.476;2023-08-06T04:58:17;13.97;;;13.07;;
20044;SDS011;10183;47.808;9.476;2023-08-06T05:00:44;13.40;;;12.50;;
20044;SDS011;10183;47.808;9.476;2023-08-06T05:03:10;20.17;;;18.77;;
20044;SDS011;10183;47.808;9.476;2023-08-06T05:05:36;22.37;;;20.67;;
20044;SDS011;10183;47.808;9.476;2023-08-06T05:08:02;21.73;;;20.13;;
20044;SDS011;10183;47.808;9.476;2023-08-06T05:10:28;17.03;;;15.93;;
20044;SDS011;10183;47.808;9.476;2023-08-06T05:12:54;18.97;;;17.77;;
20044;SDS011;10183;47.808;9.476;2023-08-06T05:15:21;18.80;;;17.50;;
20044;SDS011;10183;47.808;9.476;2023-08-06T05:17:47;24.37;;;22.67;;
20044;SDS011;10183;47.808;9.476;2023-08-06T05:20:13;24.80;;;23.10;;
20044;SDS011;10183;47.808;9.476;2023-08-06T05:22:40;15.07;;;14.13;;
20044;SDS011;10183;47.808;9.476;2023-08-06T05:25:06;16.63;;;15.63;;
20044;SDS011;10183;47.808;9.476;2023-08-06T05:27:32;16.60;;;15.53;;
20044;SDS011;10183;47.808;9.476;2023-08-06T05:29:58;17.07;;;15.97;;
20044;SDS011;10183;47.808;9.476;2023-08-06T05:32:25;16.37;;;15.27;;
20044;SDS011;10183;47.808;9.476;2023-08-06T05:34:51;14.20;;;13.30;;
20044;SDS011;10183;47.808;9.476;2023-08-06T05:37:17;16.93;;;15.30;;
20044;SDS011;10183;47.808;9.476;2023-08-06T05:39:43;16.67;;;15.57;;
20044;SDS011;10183;47.808;9.476;2023-08-06T05:42:09;17.07;;;16.10;;
20044;SDS011;10183;47.808;9.476;2023-08-06T05:44:36;16.93;;;15.73;;
20044;SDS011;10183;47.808;9.476;2023-08-06T05:47:02;17.03;;;15.93;;
20044;SDS011;10183;47.808;9.476;2023-08-06T05:49:28;16.83;;;15.83;;
20044;SDS011;10183;47.808;9.476;2023-08-06T05:51:54;16.80;;;15.80;;
20044;SDS011;10183;47.808;9.476;2023-08-06T05:54:20;15.80;;;14.70;;
20044;SDS011;10183;47.808;9.476;2023-08-06T05:56:46;17.40;;;16.40;;
20044;SDS011;10183;47.808;9.476;2023-08-06T05:59:13;22.40;;;20.53;;
20044;SDS011;10183;47.808;9.476;2023-08-06T06:01:39;22.33;;;20.80;;
20044;SDS011;10183;47.808;9.476;2023-08-06T06:04:05;19.43;;;18.23;;
20044;SDS011;10183;47.808;9.476;2023-08-06T06:06:31;19.70;;;18.40;;
20044;SDS011;10183;47.808;9.476;2023-08-06T06:08:57;19.23;;;17.93;;
20044;SDS011;10183;47.808;9.476;2023-08-06T06:11:23;18.87;;;17.67;;
20044;SDS011;10183;47.808;9.476;2023-08-06T06:13:50;18.53;;;17.23;;
20044;SDS011;10183;47.808;9.476;2023-08-06T06:16:17;19.20;;;18.00;;
20044;SDS011;10183;47.808;9.476;2023-08-06T06:18:43;24.10;;;22.40;;
20044;SDS011;10183;47.808;9.476;2023-08-06T06:21:09;27.43;;;25.33;;
20044;SDS011;10183;47.808;9.476;2023-08-06T06:23:36;21.20;;;19.80;;
20044;SDS011;10183;47.808;9.476;2023-08-06T06:26:02;30.77;;;27.90;;
20044;SDS011;10183;47.808;9.476;2023-08-06T06:28:28;28.90;;;26.60;;
20044;SDS011;10183;47.808;9.476;2023-08-06T06:30:59;25.57;;;23.57;;
20044;SDS011;10183;47.808;9.476;2023-08-06T06:33:26;24.53;;;22.83;;
20044;SDS011;10183;47.808;9.476;2023-08-06T06:35:52;28.50;;;26.40;;
20044;SDS011;10183;47.808;9.476;2023-08-06T06:38:19;22.23;;;20.73;;
20044;SDS011;10183;47.808;9.476;2023-08-06T06:40:53;21.63;;;20.23;;
20044;SDS011;10183;47.808;9.476;2023-08-06T06:43:20;31.13;;;28.73;;
20044;SDS011;10183;47.808;9.476;2023-08-06T06:45:46;25.50;;;23.67;;
20044;SDS011;10183;47.808;9.476;2023-08-06T06:48:12;26.03;;;24.10;;
20044;SDS011;10183;47.808;9.476;2023-08-06T06:50:38;25.73;;;23.83;;
20044;SDS011;10183;47.808;9.476;2023-08-06T06:53:05;46.40;;;41.80;;
20044;SDS011;10183;47.808;9.476;2023-08-06T06:55:31;26.63;;;24.70;;
20044;SDS011;10183;47.808;9.476;2023-08-06T06:57:57;24.83;;;23.13;;
20044;SDS011;10183;47.808;9.476;2023-08-06T07:00:23;23.67;;;21.97;;
20044;SDS011;10183;47.808;9.476;2023-08-06T07:02:49;24.50;;;22.80;;
20044;SDS011;10183;47.808;9.476;2023-08-06T07:05:16;23.93;;;22.10;;
20044;SDS011;10183;47.808;9.476;2023-08-06T07:07:42;25.93;;;24.13;;
20044;SDS011;10183;47.808;9.476;2023-08-06T07:10:08;24.53;;;22.73;;
20044;SDS011;10183;47.808;9.476;2023-08-06T07:12:34;26.77;;;24.67;;
20044;SDS011;10183;47.808;9.476;2023-08-06T07:15:04;27.43;;;25.47;;
20044;SDS011;10183;47.808;9.476;2023-08-06T07:17:31;26.03;;;24.33;;
20044;SDS011;10183;47.808;9.476;2023-08-06T07:19:58;30.67;;;28.17;;
20044;SDS011;10183;47.808;9.476;2023-08-06T07:22:24;27.87;;;25.73;;
20044;SDS011;10183;47.808;9.476;2023-08-06T07:24:50;27.07;;;24.77;;
20044;SDS011;10183;47.808;9.476;2023-08-06T07:27:16;28.80;;;26.67;;
20044;SDS011;10183;47.808;9.476;2023-08-06T07:29:42;24.87;;;23.17;;
20044;SDS011;10183;47.808;9.476;2023-08-06T07:32:08;22.53;;;20.73;;
20044;SDS011;10183;47.808;9.476;2023-08-06T07:34:34;19.10;;;17.80;;
20044;SDS011;10183;47.808;9.476;2023-08-06T07:37:01;20.27;;;18.63;;
20044;SDS011;10183;47.808;9.476;2023-08-06T07:39:30;18.40;;;17.10;;
20044;SDS011;10183;47.808;9.476;2023-08-06T07:41:56;18.40;;;17.10;;
20044;SDS011;10183;47.808;9.476;2023-08-06T07:44:22;18.33;;;16.87;;
20044;SDS011;10183;47.808;9.476;2023-08-06T07:46:49;15.70;;;14.70;;
20044;SDS011;10183;47.808;9.476;2023-08-06T07:49:15;14.37;;;13.47;;
20044;SDS011;10183;47.808;9.476;2023-08-06T07:51:41;15.30;;;14.23;;
20044;SDS011;10183;47.808;9.476;2023-08-06T07:54:08;15.57;;;14.57;;
20044;SDS011;10183;47.808;9.476;2023-08-06T07:56:34;17.73;;;16.57;;
20044;SDS011;10183;47.808;9.476;2023-08-06T07:59:02;13.73;;;12.90;;
20044;SDS011;10183;47.808;9.476;2023-08-06T08:01:28;14.63;;;13.67;;
20044;SDS011;10183;47.808;9.476;2023-08-06T08:03:55;15.90;;;14.90;;
20044;SDS011;10183;47.808;9.476;2023-08-06T08:06:21;12.87;;;12.07;;
20044;SDS011;10183;47.808;9.476;2023-08-06T08:08:48;13.67;;;12.77;;
20044;SDS011;10183;47.808;9.476;2023-08-06T08:11:14;14.23;;;13.13;;
20044;SDS011;10183;47.808;9.476;2023-08-06T08:13:41;12.60;;;11.80;;
20044;SDS011;10183;47.808;9.476;2023-08-06T08:16:08;13.10;;;12.10;;
20044;SDS011;10183;47.808;9.476;2023-08-06T08:18:34;13.33;;;12.53;;
20044;SDS011;10183;47.808;9.476;2023-08-06T08:21:00;15.07;;;13.90;;
20044;SDS011;10183;47.808;9.476;2023-08-06T08:23:26;16.03;;;14.83;;
20044;SDS011;10183;47.808;9.476;2023-08-06T08:25:52;16.60;;;15.20;;
20044;SDS011;10183;47.808;9.476;2023-08-06T08:28:19;15.53;;;14.43;;
20044;SDS011;10183;47.808;9.476;2023-08-06T08:30:45;14.17;;;13.27;;
20044;SDS011;10183;47.808;9.476;2023-08-06T08:33:11;15.87;;;14.87;;
20044;SDS011;10183;47.808;9.476;2023-08-06T08:35:37;14.83;;;13.50;;
20044;SDS011;10183;47.808;9.476;2023-08-06T08:38:03;17.57;;;16.37;;
20044;SDS011;10183;47.808;9.476;2023-08-06T08:40:45;15.60;;;14.50;;
20044;SDS011;10183;47.808;9.476;2023-08-06T08:43:15;16.40;;;15.30;;
20044;SDS011;10183;47.808;9.476;2023-08-06T08:45:46;15.10;;;14.10;;
20044;SDS011;10183;47.808;9.476;2023-08-06T08:48:16;13.40;;;12.60;;
20044;SDS011;10183;47.808;9.476;2023-08-06T08:50:44;13.77;;;12.87;;
20044;SDS011;10183;47.808;9.476;2023-08-06T08:53:11;13.60;;;12.70;;
20044;SDS011;10183;47.808;9.476;2023-08-06T08:55:38;12.77;;;11.97;;
20044;SDS011;10183;47.808;9.476;2023-08-06T08:58:06;13.10;;;12.20;;
20044;SDS011;10183;47.808;9.476;2023-08-06T09:00:32;12.80;;;11.90;;
20044;SDS011;10183;47.808;9.476;2023-08-06T09:02:59;12.43;;;11.63;;
20044;SDS011;10183;47.808;9.476;2023-08-06T09:05:28;13.73;;;12.93;;
20044;SDS011;10183;47.808;9.476;2023-08-06T09:07:56;11.30;;;10.50;;
20044;SDS011;10183;47.808;9.476;2023-08-06T09:10:29;12.00;;;11.23;;
20044;SDS011;10183;47.808;9.476;2023-08-06T09:12:58;11.70;;;11.00;;
20044;SDS011;10183;47.808;9.476;2023-08-06T09:15:26;10.60;;;10.00;;
20044;SDS011;10183;47.808;9.476;2023-08-06T09:17:54;11.33;;;10.47;;
20044;SDS011;10183;47.808;9.476;2023-08-06T09:20:20;11.67;;;10.73;;
20044;SDS011;10183;47.808;9.476;2023-08-06T09:22:47;9.97;;;9.37;;
20044;SDS011;10183;47.808;9.476;2023-08-06T09:25:23;10.67;;;10.00;;
20044;SDS011;10183;47.808;9.476;2023-08-06T09:27:52;11.53;;;10.73;;
20044;SDS011;10183;47.808;9.476;2023-08-06T09:30:31;9.93;;;9.20;;
20044;SDS011;10183;47.808;9.476;2023-08-06T09:33:01;8.70;;;8.30;;
20044;SDS011;10183;47.808;9.476;2023-08-06T09:35:31;11.63;;;10.83;;
20044;SDS011;10183;47.808;9.476;2023-08-06T09:38:07;11.30;;;10.60;;
20044;SDS011;10183;47.808;9.476;2023-08-06T09:40:36;11.90;;;11.10;;
20044;SDS011;10183;47.808;9.476;2023-08-06T09:43:03;11.90;;;11.20;;
20044;SDS011;10183;47.808;9.476;2023-08-06T09:45:31;11.00;;;10.23;;
20044;SDS011;10183;47.808;9.476;2023-08-06T09:47:59;10.47;;;9.87;;
20044;SDS011;10183;47.808;9.476;2023-08-06T09:50:28;12.60;;;11.80;;
20044;SDS011;10183;47.808;9.476;2023-08-06T09:52:59;12.80;;;12.00;;
20044;SDS011;10183;47.808;9.476;2023-08-06T09:55:26;12.17;;;11.00;;
20044;SDS011;10183;47.808;9.476;2023-08-06T09:57:52;15.57;;;14.47;;
20044;SDS011;10183;47.808;9.476;2023-08-06T10:00:20;16.03;;;14.93;;
20044;SDS011;10183;47.808;9.476;2023-08-06T10:02:47;16.50;;;15.40;;
20044;SDS011;10183;47.808;9.476;2023-08-06T10:05:15;15.33;;;14.37;;
20044;SDS011;10183;47.808;9.476;2023-08-06T10:07:42;15.43;;;14.43;;
20044;SDS011;10183;47.808;9.476;2023-08-06T10:10:10;14.63;;;13.73;;
20044;SDS011;10183;47.808;9.476;2023-08-06T10:12:40;17.00;;;15.90;;
20044;SDS011;10183;47.808;9.476;2023-08-06T10:15:11;17.57;;;16.47;;
20044;SDS011;10183;47.808;9.476;2023-08-06T10:17:40;18.60;;;17.30;;
20044;SDS011;10183;47.808;9.476;2023-08-06T10:20:10;22.03;;;20.37;;
20044;SDS011;10183;47.808;9.476;2023-08-06T10:22:37;20.67;;;19.07;;
20044;SDS011;10183;47.808;9.476;2023-08-06T10:25:09;18.27;;;17.07;;
20044;SDS011;10183;47.808;9.476;2023-08-06T10:27:54;21.10;;;19.70;;
20044;SDS011;10183;47.808;9.476;2023-08-06T10:30:21;17.70;;;16.50;;
20044;SDS011;10183;47.808;9.476;2023-08-06T10:32:58;23.63;;;21.93;;
20044;SDS011;10183;47.808;9.476;2023-08-06T10:38:17;19.03;;;17.80;;
20044;SDS011;10183;47.808;9.476;2023-08-06T10:43:28;20.87;;;19.30;;
20044;SDS011;10183;47.808;9.476;2023-08-06T10:45:54;21.53;;;20.03;;
20044;SDS011;10183;47.808;9.476;2023-08-06T10:48:40;19.03;;;17.83;;
20044;SDS011;10183;47.808;9.476;2023-08-06T10:51:08;25.03;;;23.13;;
20044;SDS011;10183;47.808;9.476;2023-08-06T10:53:36;19.37;;;18.07;;
20044;SDS011;10183;47.808;9.476;2023-08-06T10:58:43;19.10;;;17.80;;
20044;SDS011;10183;47.808;9.476;2023-08-06T11:01:12;17.00;;;15.90;;
20044;SDS011;10183;47.808;9.476;2023-08-06T11:03:39;27.30;;;25.00;;
20044;SDS011;10183;47.808;9.476;2023-08-06T11:06:08;31.97;;;28.80;;
20044;SDS011;10183;47.808;9.476;2023-08-06T11:08:39;29.67;;;27.30;;
20044;SDS011;10183;47.808;9.476;2023-08-06T11:11:09;31.50;;;28.50;;
20044;SDS011;10183;47.808;9.476;2023-08-06T11:13:39;33.93;;;30.73;;
20044;SDS011;10183;47.808;9.476;2023-08-06T11:16:05;25.53;;;23.63;;
20044;SDS011;10183;47.808;9.476;2023-08-06T11:18:32;23.87;;;22.17;;
20044;SDS011;10183;47.808;9.476;2023-08-06T11:20:59;24.37;;;22.47;;
20044;SDS011;10183;47.808;9.476;2023-08-06T11:23:27;20.70;;;19.30;;
20044;SDS011;10183;47.808;9.476;2023-08-06T11:25:57;21.20;;;19.80;;
20044;SDS011;10183;47.808;9.476;2023-08-06T11:28:23;21.13;;;19.73;;
20044;SDS011;10183;47.808;9.476;2023-08-06T11:30:50;20.87;;;19.13;;
20044;SDS011;10183;47.808;9.476;2023-08-06T11:33:20;23.13;;;21.40;;
20044;SDS011;10183;47.808;9.476;2023-08-06T11:35:48;24.43;;;22.57;;
20044;SDS011;10183;47.808;9.476;2023-08-06T11:38:15;24.90;;;22.97;;
20044;SDS011;10183;47.808;9.476;2023-08-06T11:40:43;25.30;;;23.40;;
20044;SDS011;10183;47.808;9.476;2023-08-06T11:43:11;25.07;;;23.27;;
20044;SDS011;10183;47.808;9.476;2023-08-06T11:45:38;25.53;;;23.70;;
20044;SDS011;10183;47.808;9.476;2023-08-06T11:48:05;27.83;;;25.73;;
20044;SDS011;10183;47.808;9.476;2023-08-06T11:50:35;31.00;;;28.50;;
20044;SDS011;10183;47.808;9.476;2023-08-06T11:53:05;31.43;;;28.97;;
20044;SDS011;10183;47.808;9.476;2023-08-06T11:55:33;26.30;;;24.40;;
20044;SDS011;10183;47.808;9.476;2023-08-06T11:58:02;30.27;;;27.97;;
20044;SDS011;10183;47.808;9.476;2023-08-06T12:00:32;29.77;;;27.47;;
20044;SDS011;10183;47.808;9.476;2023-08-06T12:02:58;25.53;;;23.53;;
20044;SDS011;10183;47.808;9.476;2023-08-06T12:05:31;34.90;;;31.90;;
20044;SDS011;10183;47.808;9.476;2023-08-06T12:07:59;28.33;;;26.23;;
20044;SDS011;10183;47.808;9.476;2023-08-06T12:10:27;28.30;;;26.20;;
20044;SDS011;10183;47.808;9.476;2023-08-06T12:12:55;33.23;;;30.53;;
20044;SDS011;10183;47.808;9.476;2023-08-06T12:15:21;31.57;;;28.97;;
20044;SDS011;10183;47.808;9.476;2023-08-06T12:17:48;29.43;;;26.93;;
20044;SDS011;10183;47.808;9.476;2023-08-06T12:20:14;32.77;;;30.07;;
20044;SDS011;10183;47.808;9.476;2023-08-06T12:22:41;27.77;;;25.57;;
20044;SDS011;10183;47.808;9.476;2023-08-06T12:25:08;31.67;;;28.80;;
20044;SDS011;10183;47.808;9.476;2023-08-06T12:27:40;29.87;;;27.30;;
20044;SDS011;10183;47.808;9.476;2023-08-06T12:30:07;31.20;;;28.60;;
20044;SDS011;10183;47.808;9.476;2023-08-06T12:32:34;28.47;;;26.27;;
20044;SDS011;10183;47.808;9.476;2023-08-06T12:35:00;28.53;;;26.13;;
20044;SDS011;10183;47.808;9.476;2023-08-06T12:37:27;34.73;;;31.50;;
20044;SDS011;10183;47.808;9.476;2023-08-06T12:39:54;25.20;;;23.10;;
20044;SDS011;10183;47.808;9.476;2023-08-06T12:42:20;32.47;;;29.70;;
20044;SDS011;10183;47.808;9.476;2023-08-06T12:44:50;29.80;;;27.50;;
20044;SDS011;10183;47.808;9.476;2023-08-06T12:47:17;26.93;;;24.67;;
20044;SDS011;10183;47.808;9.476;2023-08-06T12:49:43;26.13;;;24.13;;
20044;SDS011;10183;47.808;9.476;2023-08-06T12:52:09;25.53;;;23.63;;
20044;SDS011;10183;47.808;9.476;2023-08-06T12:54:38;23.00;;;21.10;;
20044;SDS011;10183;47.808;9.476;2023-08-06T12:57:04;21.40;;;19.60;;
20044;SDS011;10183;47.808;9.476;2023-08-06T12:59:31;27.93;;;25.63;;
20044;SDS011;10183;47.808;9.476;2023-08-06T13:01:59;27.83;;;25.63;;
20044;SDS011;10183;47.808;9.476;2023-08-06T13:04:25;29.83;;;27.43;;
20044;SDS011;10183;47.808;9.476;2023-08-06T13:06:51;27.73;;;25.53;;
20044;SDS011;10183;47.808;9.476;2023-08-06T13:09:17;27.93;;;25.73;;
20044;SDS011;10183;47.808;9.476;2023-08-06T13:11:44;24.07;;;22.27;;
20044;SDS011;10183;47.808;9.476;2023-08-06T13:14:12;21.47;;;19.87;;
20044;SDS011;10183;47.808;9.476;2023-08-06T13:16:39;23.90;;;22.10;;
20044;SDS011;10183;47.808;9.476;2023-08-06T13:19:07;27.00;;;24.90;;
20044;SDS011;10183;47.808;9.476;2023-08-06T13:21:58;22.37;;;20.57;;
20044;SDS011;10183;47.808;9.476;2023-08-06T13:24:28;18.10;;;16.70;;
20044;SDS011;10183;47.808;9.476;2023-08-06T13:26:54;18.93;;;17.43;;
20044;SDS011;10183;47.808;9.476;2023-08-06T13:29:20;18.60;;;17.20;;
20044;SDS011;10183;47.808;9.476;2023-08-06T13:31:47;15.73;;;14.43;;
20044;SDS011;10183;47.808;9.476;2023-08-06T13:34:13;14.47;;;13.47;;
20044;SDS011;10183;47.808;9.476;2023-08-06T13:36:42;12.93;;;11.87;;
20044;SDS011;10183;47.808;9.476;2023-08-06T13:39:08;10.80;;;10.03;;
20044;SDS011;10183;47.808;9.476;2023-08-06T13:41:34;10.27;;;9.57;;
20044;SDS011;10183;47.808;9.476;2023-08-06T13:44:01;11.57;;;10.57;;
20044;SDS011;10183;47.808;9.476;2023-08-06T13:46:27;13.40;;;12.40;;
20044;SDS011;10183;47.808;9.476;2023-08-06T13:48:53;12.60;;;11.80;;
20044;SDS011;10183;47.808;9.476;2023-08-06T13:51:19;13.40;;;12.50;;
20044;SDS011;10183;47.808;9.476;2023-08-06T13:53:45;13.03;;;12.03;;
20044;SDS011;10183;47.808;9.476;2023-08-06T13:56:12;10.30;;;9.60;;
20044;SDS011;10183;47.808;9.476;2023-08-06T13:58:40;10.30;;;9.60;;
20044;SDS011;10183;47.808;9.476;2023-08-06T14:01:08;11.23;;;10.47;;
20044;SDS011;10183;47.808;9.476;2023-08-06T14:03:36;12.67;;;11.77;;
20044;SDS011;10183;47.808;9.476;2023-08-06T14:06:02;13.80;;;12.80;;
20044;SDS011;10183;47.808;9.476;2023-08-06T14:08:29;15.93;;;13.80;;
20044;SDS011;10183;47.808;9.476;2023-08-06T14:10:55;14.60;;;13.60;;
20044;SDS011;10183;47.808;9.476;2023-08-06T14:13:21;14.87;;;13.93;;
20044;SDS011;10183;47.808;9.476;2023-08-06T14:15:48;23.20;;;21.40;;
20044;SDS011;10183;47.808;9.476;2023-08-06T14:18:14;24.23;;;22.33;;
20044;SDS011;10183;47.808;9.476;2023-08-06T14:20:42;30.10;;;27.70;;
20044;SDS011;10183;47.808;9.476;2023-08-06T14:23:09;27.00;;;24.70;;
20044;SDS011;10183;47.808;9.476;2023-08-06T14:25:36;25.53;;;23.60;;
20044;SDS011;10183;47.808;9.476;2023-08-06T14:28:03;25.20;;;23.30;;
20044;SDS011;10183;47.808;9.476;2023-08-06T14:30:32;24.43;;;22.53;;
20044;SDS011;10183;47.808;9.476;2023-08-06T14:32:59;22.17;;;20.67;;
20044;SDS011;10183;47.808;9.476;2023-08-06T14:35:28;23.03;;;21.33;;
20044;SDS011;10183;47.808;9.476;2023-08-06T14:37:55;21.20;;;19.67;;
20044;SDS011;10183;47.808;9.476;2023-08-06T14:40:21;21.90;;;20.40;;